createdAt,value
2022-08-22T00:02:10.770Z,27.60
2022-08-22T00:02:41.412Z,19.80
2022-08-22T00:02:45.175Z,28.00
2022-08-22T00:03:00.352Z,30.30
2022-08-22T00:03:01.922Z,25.80
2022-08-22T00:03:02.741Z,23.10
2022-08-22T00:05:05.565Z,33.53
2022-08-22T00:07:44.146Z,23.90
2022-08-22T00:10:35.518Z,18.30
2022-08-22T00:13:05.582Z,31.33
2022-08-22T00:15:44.278Z,28.52
2022-08-22T00:18:28.266Z,20.60
2022-08-22T00:21:25.282Z,26.23
2022-08-22T00:24:13.802Z,22.70
2022-08-22T00:26:47.056Z,34.75
2022-08-22T00:29:23.901Z,41.47
2022-08-22T00:32:07.382Z,23.38
2022-08-22T00:35:05.897Z,35.53
2022-08-22T00:37:39.486Z,32.37
2022-08-22T00:40:45.227Z,35.80
2022-08-22T00:43:20.662Z,29.75
2022-08-22T00:46:24.665Z,32.53
2022-08-22T00:49:31.465Z,22.40
2022-08-22T00:52:14.388Z,15.23
2022-08-22T00:55:00.684Z,25.63
2022-08-22T00:58:01.208Z,25.45
2022-08-22T01:00:35.082Z,32.95
2022-08-22T01:03:44.598Z,21.60
2022-08-22T01:06:19.840Z,18.77
2022-08-22T01:09:29.173Z,21.98
2022-08-22T01:12:19.887Z,23.38
2022-08-22T01:14:59.207Z,23.98
2022-08-22T01:17:37.863Z,19.20
2022-08-22T01:20:29.495Z,24.05
2022-08-22T01:23:27.966Z,28.13
2022-08-22T01:26:25.069Z,31.00
2022-08-22T01:29:31.486Z,22.23
2022-08-22T01:32:35.930Z,29.15
2022-08-22T01:35:02.445Z,23.83
2022-08-22T01:37:34.934Z,29.13
2022-08-22T01:40:35.103Z,27.83
2022-08-22T01:43:10.300Z,22.92
2022-08-22T01:45:42.426Z,26.50
2022-08-22T01:48:17.782Z,24.55
2022-08-22T01:51:00.416Z,25.13
2022-08-22T01:54:23.399Z,31.25
2022-08-22T01:56:50.060Z,32.25
2022-08-22T01:59:34.071Z,18.52
2022-08-22T02:02:15.665Z,23.58
2022-08-22T02:04:58.242Z,24.65
2022-08-22T02:08:09.817Z,21.25
2022-08-22T02:10:42.269Z,25.70
2022-08-22T02:13:14.849Z,34.88
2022-08-22T02:15:41.439Z,27.05
2022-08-22T02:18:17.352Z,30.83
2022-08-22T02:20:56.676Z,37.72
2022-08-22T02:23:25.916Z,26.85
2022-08-22T02:26:01.545Z,23.67
2022-08-22T02:31:07.010Z,20.73
2022-08-22T02:33:49.324Z,38.40
2022-08-22T02:36:22.062Z,24.10
2022-08-22T02:38:59.686Z,14.93
2022-08-22T02:41:46.769Z,25.92
2022-08-22T02:44:30.504Z,21.10
2022-08-22T02:47:26.694Z,21.67
2022-08-22T02:50:29.397Z,22.30
2022-08-22T02:53:08.978Z,18.95
2022-08-22T02:55:55.628Z,17.63
2022-08-22T02:58:59.204Z,16.05
2022-08-22T03:01:32.289Z,31.35
2022-08-22T03:04:32.568Z,22.23
2022-08-22T03:07:11.140Z,38.75
2022-08-22T03:09:46.151Z,20.02
2022-08-22T03:12:28.019Z,18.45
2022-08-22T03:15:15.375Z,21.35
2022-08-22T03:17:55.519Z,23.48
2022-08-22T03:20:45.751Z,27.08
2022-08-22T03:23:42.349Z,25.80
2022-08-22T03:28:52.672Z,24.10
2022-08-22T03:31:28.327Z,26.20
2022-08-22T03:34:13.774Z,23.17
2022-08-22T03:36:48.352Z,24.52
2022-08-22T03:39:35.077Z,28.92
2022-08-22T03:42:25.039Z,19.98
2022-08-22T03:44:51.530Z,33.38
2022-08-22T03:47:28.299Z,34.08
2022-08-22T03:50:14.357Z,18.85
2022-08-22T03:53:10.315Z,19.30
2022-08-22T03:56:06.577Z,25.23
2022-08-22T03:58:33.158Z,28.98
2022-08-22T04:01:19.644Z,17.95
2022-08-22T04:04:04.599Z,17.73
2022-08-22T04:06:48.331Z,25.70
2022-08-22T04:09:49.019Z,28.42
2022-08-22T04:12:41.121Z,34.10
2022-08-22T04:15:07.745Z,16.52
2022-08-22T04:17:42.935Z,19.23
2022-08-22T04:21:06.226Z,20.48
2022-08-22T04:23:40.422Z,20.98
2022-08-22T04:26:15.736Z,30.35
2022-08-22T04:28:58.934Z,27.00
2022-08-22T04:31:32.335Z,33.17
2022-08-22T04:34:15.275Z,18.35
2022-08-22T04:36:51.022Z,39.70
2022-08-22T04:42:32.179Z,17.52
2022-08-22T04:45:05.517Z,23.60
2022-08-22T04:47:36.766Z,17.92
2022-08-22T04:50:14.587Z,21.65
2022-08-22T04:52:48.385Z,17.15
2022-08-22T04:55:33.045Z,20.20
2022-08-22T04:58:10.758Z,20.05
2022-08-22T05:00:57.043Z,17.63
2022-08-22T05:03:26.960Z,18.58
2022-08-22T05:05:55.646Z,20.98
2022-08-22T05:08:25.837Z,12.68
2022-08-22T05:10:54.154Z,26.13
2022-08-22T05:13:39.146Z,22.60
2022-08-22T05:16:14.770Z,16.90
2022-08-22T05:21:24.496Z,25.00
2022-08-22T05:24:05.772Z,16.77
2022-08-22T05:26:43.781Z,29.33
2022-08-22T05:29:14.608Z,11.90
2022-08-22T05:31:49.959Z,12.57
2022-08-22T05:34:28.265Z,23.15
2022-08-22T05:37:17.837Z,19.35
2022-08-22T05:39:49.111Z,19.33
2022-08-22T05:42:26.564Z,23.40
2022-08-22T05:44:54.365Z,14.25
2022-08-22T05:47:33.036Z,15.65
2022-08-22T05:50:13.621Z,15.43
2022-08-22T05:53:03.009Z,21.73
2022-08-22T05:55:53.107Z,19.42
2022-08-22T05:58:40.079Z,19.83
2022-08-22T06:01:29.169Z,15.35
2022-08-22T06:04:14.269Z,20.45
2022-08-22T06:06:53.098Z,13.32
2022-08-22T06:09:24.387Z,18.65
2022-08-22T06:12:00.856Z,21.25
2022-08-22T06:14:42.231Z,14.55
2022-08-22T06:17:21.204Z,21.73
2022-08-22T06:19:51.246Z,10.65
2022-08-22T06:22:23.277Z,13.50
2022-08-22T06:24:51.957Z,19.20
2022-08-22T06:27:23.909Z,21.25
2022-08-22T06:29:59.041Z,25.55
2022-08-22T06:32:59.082Z,12.02
2022-08-22T06:35:59.623Z,10.02
2022-08-22T06:38:34.769Z,21.10
2022-08-22T06:41:07.122Z,13.60
2022-08-22T06:43:39.839Z,23.60
2022-08-22T06:46:08.423Z,13.57
2022-08-22T06:48:36.922Z,28.90
2022-08-22T06:51:08.274Z,28.55
2022-08-22T06:53:39.580Z,10.93
2022-08-22T06:56:18.472Z,18.40
2022-08-22T06:58:47.765Z,13.15
2022-08-22T07:01:19.295Z,12.35
2022-08-22T07:03:57.444Z,14.75
2022-08-22T07:06:38.311Z,11.35
2022-08-22T07:09:07.071Z,9.77
2022-08-22T07:11:39.608Z,8.30
2022-08-22T07:14:12.517Z,12.27
2022-08-22T07:16:44.982Z,13.70
2022-08-22T07:19:30.259Z,8.43
2022-08-22T07:21:58.721Z,10.07
2022-08-22T07:24:32.306Z,15.80
2022-08-22T07:27:14.097Z,7.10
2022-08-22T07:30:14.689Z,8.05
2022-08-22T07:32:54.640Z,12.57
2022-08-22T07:35:30.391Z,11.65
2022-08-22T07:38:09.797Z,12.10
2022-08-22T07:40:49.638Z,13.43
2022-08-22T07:43:41.554Z,11.98
2022-08-22T07:46:39.673Z,12.63
2022-08-22T07:49:16.688Z,13.38
2022-08-22T07:51:47.809Z,16.92
2022-08-22T07:54:20.578Z,10.05
2022-08-22T07:57:03.655Z,9.30
2022-08-22T07:59:33.285Z,12.20
2022-08-22T08:02:04.673Z,13.50
2022-08-22T08:04:39.541Z,12.38
2022-08-22T08:07:10.063Z,19.23
2022-08-22T08:09:44.513Z,7.35
2022-08-22T08:12:12.772Z,10.37
2022-08-22T08:14:45.995Z,11.73
2022-08-22T08:17:20.840Z,10.25
2022-08-22T08:19:48.427Z,14.90
2022-08-22T08:22:19.857Z,14.77
2022-08-22T08:24:48.226Z,15.02
2022-08-22T08:27:39.320Z,9.98
2022-08-22T08:30:15.970Z,12.80
2022-08-22T08:32:47.588Z,14.25
2022-08-22T08:36:01.911Z,13.95
2022-08-22T08:38:36.953Z,23.57
2022-08-22T08:41:24.446Z,11.25
2022-08-22T08:44:17.013Z,25.80
2022-08-22T08:46:57.473Z,17.10
2022-08-22T08:49:52.047Z,13.02
2022-08-22T08:52:29.862Z,13.60
2022-08-22T08:55:26.006Z,14.82
2022-08-22T09:00:52.728Z,26.02
2022-08-22T09:03:42.303Z,13.90
2022-08-22T09:06:13.466Z,9.75
2022-08-22T09:09:01.646Z,14.00
2022-08-22T09:11:57.543Z,11.17
2022-08-22T09:14:46.906Z,11.77
2022-08-22T09:17:43.961Z,18.10
2022-08-22T09:20:22.902Z,6.78
2022-08-22T09:23:12.946Z,13.65
2022-08-22T09:25:51.137Z,13.43
2022-08-22T09:28:21.081Z,9.35
2022-08-22T09:31:32.702Z,11.60
2022-08-22T09:34:30.581Z,21.38
2022-08-22T09:37:07.832Z,14.77
2022-08-22T09:39:50.983Z,18.02
2022-08-22T09:42:31.331Z,8.00
2022-08-22T09:45:06.922Z,10.15
2022-08-22T09:47:43.552Z,18.73
2022-08-22T09:50:19.820Z,25.23
2022-08-22T09:53:10.683Z,12.82
2022-08-22T09:55:52.773Z,7.78
2022-08-22T09:58:44.982Z,13.65
2022-08-22T10:01:39.041Z,16.63
2022-08-22T10:04:14.543Z,17.48
2022-08-22T10:07:12.437Z,17.00
2022-08-22T10:09:54.941Z,25.20
2022-08-22T10:12:56.494Z,25.27
2022-08-22T10:15:45.860Z,22.02
2022-08-22T10:18:54.684Z,33.92
2022-08-22T10:21:38.491Z,14.57
2022-08-22T10:24:25.743Z,14.95
2022-08-22T10:27:01.823Z,22.92
2022-08-22T10:29:46.544Z,27.45
2022-08-22T10:32:40.489Z,22.03
2022-08-22T10:35:19.143Z,20.83
2022-08-22T10:37:58.140Z,18.48
2022-08-22T10:40:57.034Z,24.90
2022-08-22T10:43:30.036Z,18.38
2022-08-22T10:46:19.824Z,28.08
2022-08-22T10:48:51.904Z,18.58
2022-08-22T10:51:46.419Z,25.00
2022-08-22T10:54:28.309Z,26.45
2022-08-22T10:57:31.082Z,35.50
2022-08-22T11:00:37.118Z,38.78
2022-08-22T11:03:47.088Z,38.85
2022-08-22T11:06:19.223Z,31.48
2022-08-22T11:09:07.426Z,32.05
2022-08-22T11:11:40.843Z,29.95
2022-08-22T11:14:19.564Z,36.33
2022-08-22T11:16:55.413Z,35.75
2022-08-22T11:19:38.820Z,36.60
2022-08-22T11:22:14.889Z,28.25
2022-08-22T11:25:15.052Z,47.50
2022-08-22T11:28:11.675Z,37.42
2022-08-22T11:31:22.810Z,32.25
2022-08-22T11:33:59.597Z,32.97
2022-08-22T11:36:39.580Z,35.13
2022-08-22T11:39:38.916Z,43.35
2022-08-22T11:42:11.954Z,32.25
2022-08-22T11:44:50.267Z,39.35
2022-08-22T11:47:26.537Z,24.27
2022-08-22T11:50:19.830Z,33.28
2022-08-22T11:53:07.632Z,35.00
2022-08-22T11:55:52.965Z,35.38
2022-08-22T11:58:33.880Z,22.23
2022-08-22T12:01:41.746Z,37.50
2022-08-22T12:04:31.352Z,43.85
2022-08-22T12:07:28.569Z,29.73
2022-08-22T12:10:14.239Z,45.00
2022-08-22T12:13:07.297Z,41.15
2022-08-22T12:15:53.939Z,40.05
2022-08-22T12:18:35.498Z,43.92
2022-08-22T12:21:14.170Z,38.55
2022-08-22T12:23:55.463Z,39.25
2022-08-22T12:26:57.691Z,28.67
2022-08-22T12:29:33.961Z,51.30
2022-08-22T12:32:44.065Z,45.65
2022-08-22T12:35:29.823Z,48.45
2022-08-22T12:38:29.122Z,53.87
2022-08-22T12:41:27.979Z,45.47
2022-08-22T12:44:16.476Z,42.78
2022-08-22T12:47:26.692Z,42.10
2022-08-22T12:50:14.437Z,30.83
2022-08-22T12:53:00.471Z,51.50
2022-08-22T12:55:39.369Z,27.90
2022-08-22T12:58:15.307Z,31.65
2022-08-22T13:00:47.595Z,53.13
2022-08-22T13:03:28.226Z,34.75
2022-08-22T13:06:00.024Z,38.85
2022-08-22T13:08:38.640Z,32.28
2022-08-22T13:11:22.576Z,34.38
2022-08-22T13:13:56.580Z,45.13
2022-08-22T13:16:26.164Z,49.97
2022-08-22T13:19:01.207Z,34.85
2022-08-22T13:21:43.381Z,42.28
2022-08-22T13:24:16.676Z,37.58
2022-08-22T13:26:50.706Z,44.65
2022-08-22T13:29:26.126Z,45.38
2022-08-22T13:32:01.964Z,46.28
2022-08-22T13:34:46.085Z,54.10
2022-08-22T13:37:24.652Z,52.85
2022-08-22T13:39:59.735Z,49.78
2022-08-22T13:42:31.173Z,62.20
2022-08-22T13:45:03.110Z,49.55
2022-08-22T13:47:34.813Z,43.27
2022-08-22T13:50:19.124Z,46.53
2022-08-22T13:53:07.017Z,38.90
2022-08-22T13:56:01.431Z,60.13
2022-08-22T13:58:42.068Z,55.60
2022-08-22T14:01:18.503Z,58.00
2022-08-22T14:03:55.376Z,50.25
2022-08-22T14:06:37.316Z,33.92
2022-08-22T14:09:42.693Z,57.13
2022-08-22T14:12:17.051Z,41.77
2022-08-22T14:14:49.297Z,55.55
2022-08-22T14:17:23.168Z,69.97
2022-08-22T14:20:11.219Z,49.60
2022-08-22T14:22:41.417Z,72.93
2022-08-22T14:25:18.469Z,63.63
2022-08-22T14:27:52.479Z,46.20
2022-08-22T14:30:24.434Z,50.15
2022-08-22T14:33:13.674Z,54.65
2022-08-22T14:35:53.809Z,63.13
2022-08-22T14:38:38.276Z,58.75
2022-08-22T14:43:32.003Z,58.92
2022-08-22T14:46:12.641Z,59.70
2022-08-22T14:49:28.659Z,53.35
2022-08-22T14:52:10.600Z,53.38
2022-08-22T14:54:46.298Z,49.28
2022-08-22T14:57:19.990Z,60.78
2022-08-22T14:59:51.590Z,50.33
2022-08-22T15:02:44.453Z,35.42
2022-08-22T15:05:21.394Z,53.70
2022-08-22T15:07:59.311Z,45.63
2022-08-22T15:10:32.926Z,52.63
2022-08-22T15:13:07.709Z,43.88
2022-08-22T15:15:49.338Z,39.22
2022-08-22T15:18:35.844Z,31.23
2022-08-22T15:21:18.202Z,49.05
2022-08-22T15:23:47.051Z,42.97
2022-08-22T15:26:50.077Z,39.13
2022-08-22T15:29:24.579Z,32.40
2022-08-22T15:32:02.589Z,40.28
2022-08-22T15:34:34.332Z,40.70
2022-08-22T15:37:17.594Z,30.25
2022-08-22T15:40:02.859Z,46.42
2022-08-22T15:42:48.853Z,42.22
2022-08-22T15:45:38.386Z,44.30
2022-08-22T15:48:24.350Z,34.78
2022-08-22T15:51:10.457Z,36.53
2022-08-22T15:53:43.311Z,35.33
2022-08-22T15:56:12.976Z,47.63
2022-08-22T15:58:48.559Z,26.08
2022-08-22T16:01:25.809Z,36.63
2022-08-22T16:04:12.416Z,46.97
2022-08-22T16:06:50.108Z,27.77
2022-08-22T16:09:44.952Z,22.75
2022-08-22T16:12:34.817Z,25.65
2022-08-22T16:15:05.946Z,36.80
2022-08-22T16:17:42.741Z,34.38
2022-08-22T16:20:09.943Z,40.55
2022-08-22T16:22:57.826Z,34.83
2022-08-22T16:25:46.327Z,33.97
2022-08-22T16:28:56.736Z,40.65
2022-08-22T16:33:51.218Z,52.00
2022-08-22T16:36:17.879Z,46.88
2022-08-22T16:38:49.374Z,34.13
2022-08-22T16:41:35.664Z,49.65
2022-08-22T16:44:30.179Z,42.15
2022-08-22T16:47:17.808Z,42.78
2022-08-22T16:49:50.330Z,33.78
2022-08-22T16:52:26.029Z,43.83
2022-08-22T16:55:30.955Z,46.50
2022-08-22T16:58:44.682Z,51.55
2022-08-22T17:01:23.651Z,53.20
2022-08-22T17:04:11.832Z,26.83
2022-08-22T17:07:16.630Z,40.65
2022-08-22T17:10:18.525Z,32.17
2022-08-22T17:13:29.892Z,35.65
2022-08-22T17:16:25.030Z,31.73
2022-08-22T17:18:57.543Z,41.80
2022-08-22T17:21:28.391Z,30.02
2022-08-22T17:24:32.261Z,36.45
2022-08-22T17:27:16.066Z,50.65
2022-08-22T17:30:01.801Z,30.00
2022-08-22T17:32:59.043Z,48.80
2022-08-22T17:35:55.138Z,33.78
2022-08-22T17:38:33.937Z,32.13
2022-08-22T17:41:03.865Z,34.03
2022-08-22T17:43:33.502Z,38.30
2022-08-22T17:46:44.938Z,41.15
2022-08-22T17:49:11.470Z,55.25
2022-08-22T17:52:17.433Z,52.33
2022-08-22T17:54:53.480Z,35.58
2022-08-22T17:57:32.010Z,37.40
2022-08-22T18:00:17.421Z,44.22
2022-08-22T18:03:00.634Z,44.35
2022-08-22T18:05:31.764Z,33.60
2022-08-22T18:08:08.365Z,39.33
2022-08-22T18:10:46.633Z,33.22
2022-08-22T18:13:33.653Z,38.47
2022-08-22T18:16:32.741Z,30.02
2022-08-22T18:19:21.502Z,36.58
2022-08-22T18:22:19.419Z,37.15
2022-08-22T18:24:58.221Z,47.35
2022-08-22T18:27:30.033Z,48.00
2022-08-22T18:30:13.782Z,36.10
2022-08-22T18:32:59.409Z,43.72
2022-08-22T18:35:49.835Z,30.27
2022-08-22T18:38:31.383Z,39.33
2022-08-22T18:41:16.246Z,42.30
2022-08-22T18:43:50.694Z,37.13
2022-08-22T18:46:38.403Z,26.02
2022-08-22T18:49:32.080Z,36.22
2022-08-22T18:52:31.995Z,28.60
2022-08-22T18:55:18.108Z,30.17
2022-08-22T18:58:06.840Z,26.88
2022-08-22T19:00:42.595Z,31.25
2022-08-22T19:03:36.429Z,29.23
2022-08-22T19:06:45.586Z,31.13
2022-08-22T19:09:52.552Z,29.75
2022-08-22T19:12:26.374Z,37.72
2022-08-22T19:15:07.891Z,37.28
2022-08-22T19:18:09.233Z,27.63
2022-08-22T19:21:23.129Z,37.03
2022-08-22T19:23:55.838Z,36.42
2022-08-22T19:26:40.364Z,27.52
2022-08-22T19:29:25.710Z,23.33
2022-08-22T19:31:58.394Z,29.63
2022-08-22T19:35:09.975Z,33.35
2022-08-22T19:38:07.430Z,34.85
2022-08-22T19:40:53.628Z,34.40
2022-08-22T19:43:36.207Z,33.58
2022-08-22T19:46:16.157Z,25.77
2022-08-22T19:48:57.856Z,32.83
2022-08-22T19:51:32.692Z,27.80
2022-08-22T19:54:17.361Z,38.53
2022-08-22T19:57:09.928Z,28.70
2022-08-22T20:00:02.435Z,36.92
2022-08-22T20:02:56.635Z,32.30
2022-08-22T20:06:04.707Z,36.08
2022-08-22T20:08:43.522Z,38.72
2022-08-22T20:11:49.588Z,40.05
2022-08-22T20:14:38.344Z,27.73
2022-08-22T20:17:15.302Z,15.90
2022-08-22T20:25:58.967Z,26.25
2022-08-22T20:29:10.122Z,22.65
2022-08-22T20:31:55.527Z,46.88
2022-08-22T20:34:33.990Z,47.08
2022-08-22T20:40:00.052Z,27.92
2022-08-22T20:42:48.830Z,32.50
2022-08-22T20:45:19.322Z,48.20
2022-08-22T20:47:51.270Z,25.65
2022-08-22T20:50:34.834Z,28.05
2022-08-22T20:53:11.658Z,27.52
2022-08-22T20:55:38.365Z,24.58
2022-08-22T20:58:23.039Z,38.92
2022-08-22T21:00:57.136Z,34.00
2022-08-22T21:03:36.419Z,29.27
2022-08-22T21:06:24.010Z,23.30
2022-08-22T21:09:30.322Z,35.85
2022-08-22T21:12:04.321Z,25.05
2022-08-22T21:14:47.244Z,36.10
2022-08-22T21:17:29.227Z,34.38
2022-08-22T21:20:27.151Z,34.22
2022-08-22T21:23:05.193Z,32.83
2022-08-22T21:26:06.584Z,31.73
2022-08-22T21:29:02.230Z,28.75
2022-08-22T21:31:46.934Z,36.58
2022-08-22T21:34:25.677Z,27.45
2022-08-22T21:36:58.341Z,50.13
2022-08-22T21:39:37.349Z,29.90
2022-08-22T21:42:06.376Z,32.13
2022-08-22T21:45:00.389Z,37.55
2022-08-22T21:47:31.196Z,32.58
2022-08-22T21:50:13.487Z,31.95
2022-08-22T21:53:02.182Z,41.75
2022-08-22T21:55:39.383Z,35.15
2022-08-22T21:58:09.013Z,19.50
2022-08-22T22:00:54.500Z,35.97
2022-08-22T22:03:35.740Z,32.42
2022-08-22T22:06:05.600Z,41.55
2022-08-22T22:08:32.880Z,21.90
2022-08-22T22:11:04.713Z,27.70
2022-08-22T22:16:08.902Z,25.48
2022-08-22T22:18:40.761Z,38.15
2022-08-22T22:21:10.653Z,30.85
2022-08-22T22:24:00.396Z,18.63
2022-08-22T22:29:29.801Z,38.85
2022-08-22T22:32:06.375Z,33.95
2022-08-22T22:34:49.811Z,22.73
2022-08-22T22:37:16.699Z,27.48
2022-08-22T22:39:43.501Z,30.60
2022-08-22T22:42:10.122Z,25.13
2022-08-22T22:44:36.899Z,22.25
2022-08-22T22:47:04.103Z,23.63
2022-08-22T22:49:32.100Z,29.17
2022-08-22T22:52:00.149Z,21.50
2022-08-22T22:54:27.193Z,25.40
2022-08-22T22:56:54.219Z,34.60
2022-08-22T22:59:26.770Z,27.38
2022-08-22T23:02:09.016Z,25.95
2022-08-22T23:04:39.320Z,35.67
2022-08-22T23:07:07.415Z,32.38
2022-08-22T23:09:38.614Z,44.22
2022-08-22T23:12:12.355Z,23.88
2022-08-22T23:14:38.949Z,27.60
2022-08-22T23:17:05.915Z,22.60
2022-08-22T23:19:32.979Z,22.60
2022-08-22T23:22:01.031Z,21.42
2022-08-22T23:24:29.445Z,15.73
2022-08-22T23:26:56.671Z,28.00
2022-08-22T23:29:23.298Z,17.38
2022-08-22T23:31:51.278Z,22.63
2022-08-22T23:34:24.274Z,24.88
2022-08-22T23:36:53.675Z,24.40
2022-08-22T23:39:22.123Z,21.98
2022-08-22T23:41:49.166Z,36.83
2022-08-22T23:44:18.628Z,35.05
2022-08-22T23:46:46.243Z,38.75
2022-08-22T23:49:13.542Z,23.38
2022-08-22T23:51:41.821Z,16.67
2022-08-22T23:54:12.094Z,23.15
2022-08-22T23:56:50.952Z,21.40
2022-08-22T23:59:20.890Z,22.80
